createdAt,value
2022-11-28T00:01:39.108Z,81.5
2022-11-28T00:16:15.308Z,82.1
2022-11-28T00:30:48.540Z,81.5
2022-11-28T00:45:20.640Z,84.9
2022-11-28T00:59:53.594Z,86.6
2022-11-28T01:14:20.229Z,90.6
2022-11-28T01:28:51.021Z,88
2022-11-28T01:43:26.800Z,92.4
2022-11-28T01:58:01.087Z,88.3
2022-11-28T02:12:28.425Z,89.2
2022-11-28T02:26:58.161Z,92.1
2022-11-28T02:41:27.602Z,100
2022-11-28T02:55:57.800Z,100
2022-11-28T03:10:27.879Z,100
2022-11-28T03:24:58.455Z,100
2022-11-28T03:39:28.879Z,100
2022-11-28T03:53:59.189Z,100
2022-11-28T04:08:29.031Z,100
2022-11-28T04:22:58.296Z,100
2022-11-28T04:37:28.864Z,100
2022-11-28T04:51:59.578Z,100
2022-11-28T05:06:30.510Z,100
2022-11-28T05:21:01.206Z,100
2022-11-28T05:35:28.336Z,100
2022-11-28T05:49:57.263Z,100
2022-11-28T06:04:28.095Z,100
2022-11-28T06:18:57.602Z,100
2022-11-28T06:33:27.721Z,100
2022-11-28T06:47:57.828Z,100
2022-11-28T07:02:29.001Z,100
2022-11-28T07:16:58.984Z,96.7
2022-11-28T07:31:35.428Z,98.9
2022-11-28T07:46:08.739Z,97.1
2022-11-28T08:00:37.492Z,96.8
2022-11-28T08:15:08.305Z,96.4
2022-11-28T08:29:39.572Z,100
2022-11-28T08:44:09.791Z,99.9
2022-11-28T08:58:38.258Z,100
2022-11-28T09:13:08.607Z,100
2022-11-28T09:27:38.991Z,100
2022-11-28T09:42:09.549Z,100
2022-11-28T09:56:40.499Z,100
2022-11-28T10:11:17.557Z,100
2022-11-28T10:25:50.568Z,100
2022-11-28T10:40:17.211Z,100
2022-11-28T10:54:54.007Z,100
2022-11-28T11:09:20.536Z,100
2022-11-28T11:23:56.011Z,100
2022-11-28T11:38:22.130Z,100
2022-11-28T11:52:53.027Z,100
2022-11-28T12:07:23.337Z,100
2022-11-28T12:21:53.569Z,100
2022-11-28T12:36:28.124Z,100
2022-11-28T12:51:01.354Z,100
2022-11-28T13:05:29.260Z,100
2022-11-28T13:20:00.247Z,100
2022-11-28T13:34:37.007Z,100
2022-11-28T13:49:21.387Z,100
2022-11-28T14:03:40.535Z,100
2022-11-28T14:18:56.592Z,100
2022-11-28T14:33:08.380Z,100
2022-11-28T14:47:38.527Z,100
2022-11-28T15:02:09.473Z,100
2022-11-28T15:16:50.061Z,100
2022-11-28T15:31:14.968Z,100
2022-11-28T15:45:46.773Z,100
2022-11-28T16:00:18.874Z,100
2022-11-28T16:14:48.409Z,100
2022-11-28T16:29:19.610Z,100
2022-11-28T16:43:50.538Z,100
2022-11-28T16:58:21.097Z,100
2022-11-28T17:12:54.218Z,100
2022-11-28T17:27:22.823Z,100
2022-11-28T17:41:51.995Z,100
2022-11-28T17:56:22.805Z,100
2022-11-28T18:10:53.169Z,100
2022-11-28T18:25:24.353Z,100
2022-11-28T18:39:54.554Z,100
2022-11-28T18:54:30.129Z,100
2022-11-28T19:09:03.965Z,100
2022-11-28T19:23:28.681Z,100
2022-11-28T19:38:00.003Z,100
2022-11-28T19:52:30.840Z,100
2022-11-28T20:07:01.115Z,100
2022-11-28T20:21:31.386Z,100
2022-11-28T20:36:02.085Z,100
2022-11-28T20:50:33.030Z,100
2022-11-28T21:05:03.021Z,100
2022-11-28T21:19:39.238Z,100
2022-11-28T21:34:03.349Z,100
2022-11-28T21:48:30.789Z,100
2022-11-28T22:03:32.654Z,100
2022-11-28T22:17:48.187Z,100
2022-11-28T22:32:17.415Z,100
2022-11-28T22:46:46.122Z,100
2022-11-28T23:01:22.507Z,100
2022-11-28T23:15:55.360Z,100
2022-11-28T23:30:23.605Z,100
2022-11-28T23:44:53.424Z,100
2022-11-28T23:59:30.144Z,100
